Harold B Dodd — WDI4802 — position and weather

sailwx.info

Track history (hours):
 
Tides and Currents Weather Stations Pressure Air Temp Water Temp Dewpoint Dewpoint Depression Visibility Wind Speed Wind Dir Waves Ship Positions

Harold B Dodd

Owner: ACBL River Operations LLC, Jeffersonville, IN. More information available from US FCC via Universal Licensing System and Coast Guard Vessel Documentation Center.

Last reported at 2018-Feb-11 04:37 UTC. Time now 2018-Feb-19 12:03 UTC.
Position N 32°40' W 091°06'.
Warning: this ship's position is 8 days out of date.

Length 57 m; draft 3.6 m.

Type: Towing. MMSI: 367702150.

Date/timePositionNaut miles runAvg speedWind from/ knotsBaromVisibWave heightAir tempDewpointWater temp
2018-Feb-11 04:37N 32°40' W 091°06'1 4.9
2018-Feb-11 04:26N 32°40' W 091°07'3 4.1
2018-Feb-11 03:45N 32°38' W 091°09'1 4.0
2018-Feb-11 03:30N 32°37' W 091°09'2 4.5
2018-Feb-11 03:00N 32°35' W 091°08'2 4.7
2018-Feb-11 02:30N 32°34' W 091°06'2 4.3
2018-Feb-11 01:59N 32°31' W 091°06'2 4.9
2018-Feb-11 01:30N 32°29' W 091°07'2 4.9
2018-Feb-11 01:00N 32°27' W 091°05'2 4.8
2018-Feb-11 00:30N 32°26' W 091°03'2 4.7
2018-Feb-11 00:00N 32°25' W 091°00'2 4.0
2018-Feb-10 23:30N 32°23' W 090°60'2 3.9
2018-Feb-10 23:00N 32°21' W 090°60'3 5.2
2018-Feb-10 22:30N 32°21' W 090°57'2 4.7
2018-Feb-10 22:00N 32°20' W 090°54'2 3.7
2018-Feb-10 21:30N 32°18' W 090°55'2 4.6
2018-Feb-10 21:00N 32°17' W 090°57'2 4.7
2018-Feb-10 20:30N 32°15' W 090°59'2 4.5
2018-Feb-10 20:00N 32°13' W 090°59'2 4.9
2018-Feb-10 19:30N 32°10' W 091°00'2 4.4
2018-Feb-10 19:00N 32°08' W 091°00'2 3.8
2018-Feb-10 18:27N 32°07' W 091°03'2 5.0
2018-Feb-10 18:00N 32°08' W 091°05'2 3.4
2018-Feb-10 17:30N 32°07' W 091°06'2 3.8
2018-Feb-10 16:55N 32°05' W 091°05'2 4.4
2018-Feb-10 16:29N 32°03' W 091°03'  
2018-Feb-06 18:09N 31°60' W 091°05'1 7.5
2018-Feb-06 17:59N 32°01' W 091°04'0 0.7
2018-Feb-06 17:30N 32°01' W 091°05'0 0.0
2018-Feb-06 16:55N 32°01' W 091°05'0 0.2
2018-Feb-06 16:30N 32°01' W 091°04'4 5.3
2018-Feb-06 15:47N 32°05' W 091°05'2 8.5
2018-Feb-06 15:30N 32°07' W 091°07'2 3.8
2018-Feb-06 15:00N 32°08' W 091°05'4 7.1
2018-Feb-06 14:30N 32°08' W 091°00'4 8.0
2018-Feb-06 14:00N 32°12' W 090°59'4 8.3
2018-Feb-06 13:30N 32°16' W 090°58'4 8.4
2018-Feb-06 13:00N 32°19' W 090°54'3 5.9
2018-Feb-06 12:30N 32°21' W 090°57'3 6.4
2018-Feb-06 12:00N 32°23' W 091°00'3 6.7
2018-Feb-06 11:30N 32°26' W 091°01'4 8.1
2018-Feb-06 11:00N 32°27' W 091°06'4 7.6
2018-Feb-06 10:27N 32°32' W 091°06'3 7.8
2018-Feb-06 10:00N 32°35' W 091°07'5 8.1
2018-Feb-06 09:26N 32°39' W 091°09'  
Track history (hours):
 
Tides and Currents Weather Stations Pressure Air Temp Water Temp Dewpoint Dewpoint Depression Visibility Wind Speed Wind Dir Waves Ship Positions

Harold B Dodd

Owner: ACBL River Operations LLC, Jeffersonville, IN. More information available from US FCC via Universal Licensing System and Coast Guard Vessel Documentation Center.

Last reported at 2018-Feb-11 04:37 UTC. Time now 2018-Feb-19 12:03 UTC.
Position N 32°40' W 091°06'.
Warning: this ship's position is 8 days out of date.

Length 57 m; draft 3.6 m.

Type: Towing. MMSI: 367702150.

Date/timePositionNaut miles runAvg speedWind from/ knotsBaromVisibWave heightAir tempDewpointWater temp
2018-Feb-11 04:37N 32°40' W 091°06'1 4.9
2018-Feb-11 04:26N 32°40' W 091°07'3 4.1
2018-Feb-11 03:45N 32°38' W 091°09'1 4.0
2018-Feb-11 03:30N 32°37' W 091°09'2 4.5
2018-Feb-11 03:00N 32°35' W 091°08'2 4.7
2018-Feb-11 02:30N 32°34' W 091°06'2 4.3
2018-Feb-11 01:59N 32°31' W 091°06'2 4.9
2018-Feb-11 01:30N 32°29' W 091°07'2 4.9
2018-Feb-11 01:00N 32°27' W 091°05'2 4.8
2018-Feb-11 00:30N 32°26' W 091°03'2 4.7
2018-Feb-11 00:00N 32°25' W 091°00'2 4.0
2018-Feb-10 23:30N 32°23' W 090°60'2 3.9
2018-Feb-10 23:00N 32°21' W 090°60'3 5.2
2018-Feb-10 22:30N 32°21' W 090°57'2 4.7
2018-Feb-10 22:00N 32°20' W 090°54'2 3.7
2018-Feb-10 21:30N 32°18' W 090°55'2 4.6
2018-Feb-10 21:00N 32°17' W 090°57'2 4.7
2018-Feb-10 20:30N 32°15' W 090°59'2 4.5
2018-Feb-10 20:00N 32°13' W 090°59'2 4.9
2018-Feb-10 19:30N 32°10' W 091°00'2 4.4
2018-Feb-10 19:00N 32°08' W 091°00'2 3.8
2018-Feb-10 18:27N 32°07' W 091°03'2 5.0
2018-Feb-10 18:00N 32°08' W 091°05'2 3.4
2018-Feb-10 17:30N 32°07' W 091°06'2 3.8
2018-Feb-10 16:55N 32°05' W 091°05'2 4.4
2018-Feb-10 16:29N 32°03' W 091°03'  
2018-Feb-06 18:09N 31°60' W 091°05'1 7.5
2018-Feb-06 17:59N 32°01' W 091°04'0 0.7
2018-Feb-06 17:30N 32°01' W 091°05'0 0.0
2018-Feb-06 16:55N 32°01' W 091°05'0 0.2
2018-Feb-06 16:30N 32°01' W 091°04'4 5.3
2018-Feb-06 15:47N 32°05' W 091°05'2 8.5
2018-Feb-06 15:30N 32°07' W 091°07'2 3.8
2018-Feb-06 15:00N 32°08' W 091°05'4 7.1
2018-Feb-06 14:30N 32°08' W 091°00'4 8.0
2018-Feb-06 14:00N 32°12' W 090°59'4 8.3
2018-Feb-06 13:30N 32°16' W 090°58'4 8.4
2018-Feb-06 13:00N 32°19' W 090°54'3 5.9
2018-Feb-06 12:30N 32°21' W 090°57'3 6.4
2018-Feb-06 12:00N 32°23' W 091°00'3 6.7
2018-Feb-06 11:30N 32°26' W 091°01'4 8.1
2018-Feb-06 11:00N 32°27' W 091°06'4 7.6
2018-Feb-06 10:27N 32°32' W 091°06'3 7.8
2018-Feb-06 10:00N 32°35' W 091°07'5 8.1
2018-Feb-06 09:26N 32°39' W 091°09'  

Dump ship's entire track history